Time;durP1;ratioP1;P1;durP2;ratioP2;P2;SDS_P1;SDS_P2;PMS_P1;PMS_P2;Temp;Humidity;BMP_temperature;BMP_pressure;BME280_temperature;BME280_humidity;BME280_pressure;Samples;Min_cycle;Max_cycle;Signal;HPM_P1;HPM_P2
2021/03/18 00:00:34;;;;;;;17.65;11.43;;;;;;;0.48;100.00;102406.66;6173994;28;20541;-77
2021/03/18 00:03:38;;;;;;;23.85;12.43;;;;;;;0.44;100.00;102412.63;6173624;28;20054;-78
2021/03/18 00:06:40;;;;;;;24.70;14.00;;;;;;;0.36;100.00;102399.56;6174047;28;20109;-77
2021/03/18 00:09:42;;;;;;;26.27;12.80;;;;;;;0.29;100.00;102402.91;6173761;28;20047;-77
2021/03/18 00:12:42;;;;;;;22.50;13.07;;;;;;;0.18;100.00;102407.94;6173490;28;20051;-77
2021/03/18 00:15:44;;;;;;;21.65;12.50;;;;;;;0.13;100.00;102409.53;6173652;28;20081;-77
2021/03/18 00:18:47;;;;;;;21.23;12.50;;;;;;;0.06;100.00;102410.31;6177597;28;20049;-78
2021/03/18 00:21:48;;;;;;;22.38;12.38;;;;;;;0.02;100.00;102407.66;6181444;28;20051;-77
2021/03/18 00:24:50;;;;;;;19.88;12.57;;;;;;;-0.01;100.00;102404.16;6181628;28;20566;-77
2021/03/18 00:27:51;;;;;;;21.73;12.45;;;;;;;-0.04;100.00;102406.69;6181631;28;20066;-77
2021/03/18 00:30:52;;;;;;;22.05;13.23;;;;;;;-0.09;100.00;102413.50;6181261;28;20047;-77
2021/03/18 00:33:53;;;;;;;22.08;11.77;;;;;;;-0.11;100.00;102420.34;6181685;28;20415;-77
2021/03/18 00:36:54;;;;;;;23.48;13.65;;;;;;;-0.08;100.00;102424.72;6181358;28;20058;-77
2021/03/18 00:39:57;;;;;;;22.40;12.15;;;;;;;-0.10;100.00;102421.22;6181311;28;20051;-77
2021/03/18 00:43:00;;;;;;;20.75;12.35;;;;;;;-0.07;100.00;102416.97;6181274;28;20050;-77
2021/03/18 00:46:01;;;;;;;23.70;13.35;;;;;;;-0.06;100.00;102417.84;6181282;28;20057;-77
2021/03/18 00:49:03;;;;;;;22.98;13.45;;;;;;;-0.11;100.00;102409.13;6181415;28;20070;-77
2021/03/18 00:52:04;;;;;;;20.15;12.27;;;;;;;-0.10;100.00;102410.88;6181122;28;20058;-77
2021/03/18 00:55:07;;;;;;;22.75;12.93;;;;;;;-0.14;100.00;102409.06;6181492;28;20062;-77
2021/03/18 00:58:08;;;;;;;25.00;12.50;;;;;;;-0.13;100.00;102409.13;6181076;28;20051;-77
2021/03/18 01:01:10;;;;;;;22.27;12.63;;;;;;;-0.15;100.00;102413.38;6180864;28;20513;-77
2021/03/18 01:04:11;;;;;;;22.48;13.07;;;;;;;-0.19;100.00;102408.13;6181245;28;20054;-77
2021/03/18 01:07:12;;;;;;;22.05;12.23;;;;;;;-0.14;100.00;102406.50;6181208;28;20058;-77
2021/03/18 01:10:16;;;;;;;20.83;12.38;;;;;;;-0.13;100.00;102419.47;6181094;28;20154;-77
2021/03/18 01:13:19;;;;;;;23.85;12.60;;;;;;;-0.09;100.00;102416.09;6181078;28;20058;-77
2021/03/18 01:16:21;;;;;;;26.05;12.23;;;;;;;-0.05;100.00;102410.09;6180820;28;20484;-78
2021/03/18 01:19:22;;;;;;;21.70;12.35;;;;;;;-0.07;100.00;102413.53;6180890;28;20049;-77
2021/03/18 01:22:24;;;;;;;20.60;12.43;;;;;;;0.01;100.00;102409.38;6180644;28;20050;-77
2021/03/18 01:25:25;;;;;;;22.67;12.43;;;;;;;0.10;100.00;102398.31;6180918;28;20062;-78
2021/03/18 01:28:26;;;;;;;20.40;12.15;;;;;;;0.15;100.00;102394.06;6180898;28;20058;-77
2021/03/18 01:31:28;;;;;;;18.23;11.60;;;;;;;0.17;100.00;102397.53;6175928;28;20070;-77
2021/03/18 01:34:29;;;;;;;20.00;12.15;;;;;;;0.14;100.00;102390.63;6177217;28;20171;-77
2021/03/18 01:37:30;;;;;;;21.95;13.00;;;;;;;0.16;100.00;102386.34;6176829;28;20087;-77
2021/03/18 01:40:33;;;;;;;22.85;13.75;;;;;;;0.25;100.00;102383.91;6176863;28;20133;-77
2021/03/18 01:43:34;;;;;;;25.67;12.38;;;;;;;0.26;100.00;102374.41;6176593;28;20109;-77
2021/03/18 01:46:35;;;;;;;23.63;11.95;;;;;;;0.24;100.00;102371.81;6176952;28;20055;-77
2021/03/18 01:49:36;;;;;;;22.40;12.82;;;;;;;0.38;100.00;102368.56;6176680;28;20521;-77
2021/03/18 01:52:37;;;;;;;50.55;16.13;;;;;;;0.27;100.00;102364.94;6176472;28;20146;-77
2021/03/18 01:55:41;;;;;;;373.75;24.88;;;;;;;0.18;100.00;102365.66;6176636;28;20507;-77
2021/03/18 01:58:44;;;;;;;88.38;19.10;;;;;;;0.20;100.00;102370.03;6176537;28;20047;-76
2021/03/18 02:01:44;;;;;;;97.05;21.42;;;;;;;0.22;100.00;102364.88;6176299;28;20046;-77
2021/03/18 02:04:46;;;;;;;127.63;18.83;;;;;;;0.27;100.00;102372.69;6176509;28;20047;-77
2021/03/18 02:07:48;;;;;;;38.08;17.73;;;;;;;0.26;100.00;102371.84;6176384;28;20051;-76
2021/03/18 02:10:51;;;;;;;83.57;16.98;;;;;;;0.23;100.00;102370.09;6175876;28;20412;-77
2021/03/18 02:13:52;;;;;;;116.88;19.50;;;;;;;-0.06;100.00;102377.34;6176425;28;20139;-78
2021/03/18 02:16:58;;;;;;;86.65;17.77;;;;;;;-0.13;100.00;102374.66;6176029;28;20093;-77
2021/03/18 02:20:37;;;;;;;61.75;15.13;;;;;;;-0.34;100.00;102370.84;6176261;28;20074;-77
2021/03/18 02:24:00;;;;;;;88.93;16.33;;;;;;;-0.21;100.00;102369.38;6175615;28;20051;-77
2021/03/18 02:27:34;;;;;;;62.67;16.85;;;;;;;-0.18;100.00;102360.78;6175911;28;20507;-77
2021/03/18 02:31:00;;;;;;;47.53;15.18;;;;;;;-0.53;100.00;102361.03;6175938;28;20057;-76
2021/03/18 02:34:29;;;;;;;194.43;18.83;;;;;;;-0.73;100.00;102363.22;6165790;28;20051;-77
2021/03/18 02:37:32;;;;;;;32.63;16.23;;;;;;;-0.62;100.00;102350.56;6175447;28;20400;-76
2021/03/18 02:40:36;;;;;;;40.90;18.77;;;;;;;-0.64;100.00;102355.66;6175030;28;20101;-76
2021/03/18 02:43:42;;;;;;;53.60;15.75;;;;;;;-0.55;100.00;102348.09;6175427;28;20051;-77
2021/03/18 02:46:43;;;;;;;43.20;17.85;;;;;;;-0.71;100.00;102342.63;6175416;28;20047;-77
2021/03/18 02:49:46;;;;;;;51.92;15.23;;;;;;;-0.64;100.00;102342.75;6175484;28;20070;-77
2021/03/18 02:52:50;;;;;;;36.47;15.25;;;;;;;-0.86;100.00;102345.81;6175035;28;20101;-77
2021/03/18 02:55:52;;;;;;;43.22;16.00;;;;;;;-0.80;100.00;102353.66;6175295;28;20059;-77
2021/03/18 02:58:57;;;;;;;32.08;16.08;;;;;;;-0.89;100.00;102354.34;6175088;28;20106;-76
2021/03/18 03:02:01;;;;;;;61.42;17.10;;;;;;;-0.74;100.00;102353.75;6174835;28;20043;-76
2021/03/18 03:05:04;;;;;;;52.72;18.08;;;;;;;-0.82;100.00;102356.22;6174944;28;20046;-76
2021/03/18 03:08:08;;;;;;;38.17;16.23;;;;;;;-0.93;100.00;102346.50;6174980;28;20054;-76
2021/03/18 03:11:11;;;;;;;40.10;15.57;;;;;;;-0.98;100.00;102343.84;6174627;28;20055;-76
2021/03/18 03:14:14;;;;;;;26.17;14.60;;;;;;;-0.91;100.00;102343.13;6174896;28;20055;-76
2021/03/18 03:17:18;;;;;;;48.20;14.65;;;;;;;-0.96;100.00;102347.31;6174677;28;20504;-76
2021/03/18 03:20:20;;;;;;;47.75;14.75;;;;;;;-0.96;100.00;102336.97;6174434;28;20051;-76
2021/03/18 03:23:25;;;;;;;51.63;14.68;;;;;;;-0.98;100.00;102343.84;6174300;28;20082;-76
2021/03/18 03:26:26;;;;;;;28.10;13.45;;;;;;;-0.94;100.00;102339.63;6174541;28;20114;-77
2021/03/18 03:29:27;;;;;;;37.45;13.50;;;;;;;-0.92;100.00;102333.63;6174260;28;20074;-77
2021/03/18 03:32:28;;;;;;;42.15;14.80;;;;;;;-1.07;100.00;102333.34;6174226;28;20047;-77
2021/03/18 03:35:29;;;;;;;53.83;16.83;;;;;;;-1.00;100.00;102332.59;6174468;28;20500;-76
2021/03/18 03:38:31;;;;;;;52.85;15.77;;;;;;;-0.81;100.00;102319.22;6174040;28;20134;-76
2021/03/18 03:41:32;;;;;;;31.42;15.07;;;;;;;-0.79;100.00;102329.56;6174166;28;20058;-76
2021/03/18 03:44:34;;;;;;;63.15;16.08;;;;;;;-0.82;100.00;102330.41;6174048;28;20050;-76
2021/03/18 03:47:36;;;;;;;50.67;15.02;;;;;;;-0.83;100.00;102332.94;6183246;28;20050;-76
2021/03/18 03:50:37;;;;;;;85.18;16.58;;;;;;;-0.91;100.00;102340.56;6197963;28;20050;-76
2021/03/18 03:53:44;;;;;;;31.90;16.25;;;;;;;-0.86;100.00;102332.91;6197564;28;20116;-77
2021/03/18 03:56:54;;;;;;;33.55;16.10;;;;;;;-0.67;100.00;102337.56;6197986;28;20054;-76
2021/03/18 03:59:57;;;;;;;53.30;16.33;;;;;;;-0.57;100.00;102341.16;6198099;28;20050;-76
2021/03/18 04:03:00;;;;;;;96.80;17.65;;;;;;;-0.67;100.00;102344.44;6197755;28;20057;-76
2021/03/18 04:06:02;;;;;;;36.97;14.88;;;;;;;-0.62;100.00;102354.00;6198027;28;20054;-76
2021/03/18 04:09:05;;;;;;;26.67;15.00;;;;;;;-0.59;100.00;102340.25;6197698;28;20499;-76
2021/03/18 04:12:08;;;;;;;42.80;15.95;;;;;;;-0.66;100.00;102331.53;6197401;28;20050;-77
2021/03/18 04:15:12;;;;;;;40.35;16.10;;;;;;;-0.50;100.00;102327.50;6197984;28;20065;-77
2021/03/18 04:18:15;;;;;;;27.20;13.50;;;;;;;-0.62;100.00;102327.31;6197622;28;20053;-76
2021/03/18 04:21:19;;;;;;;41.58;14.80;;;;;;;-0.60;100.00;102323.91;6197594;28;20065;-76
2021/03/18 04:24:24;;;;;;;47.08;15.52;;;;;;;-0.68;100.00;102320.34;6197541;28;20408;-76
2021/03/18 04:27:27;;;;;;;53.25;16.60;;;;;;;-0.66;100.00;102312.59;6197729;28;20051;-76
2021/03/18 04:30:29;;;;;;;31.02;14.80;;;;;;;-0.60;100.00;102318.75;6197531;28;20050;-76
2021/03/18 04:33:30;;;;;;;46.90;15.27;;;;;;;-0.62;100.00;102317.84;6197525;28;20097;-76
2021/03/18 04:36:33;;;;;;;47.28;14.40;;;;;;;-0.77;100.00;102307.25;6197697;28;20057;-76
2021/03/18 04:39:36;;;;;;;64.63;16.75;;;;;;;-0.72;100.00;102302.19;6197517;28;20050;-77
2021/03/18 04:42:37;;;;;;;66.63;15.38;;;;;;;-0.48;100.00;102309.47;6197289;28;20054;-76
2021/03/18 04:45:40;;;;;;;41.80;16.90;;;;;;;-0.75;100.00;102302.13;6197275;28;20458;-76
2021/03/18 04:48:44;;;;;;;43.10;16.17;;;;;;;-0.75;100.00;102313.31;6197561;28;20042;-76
2021/03/18 04:51:46;;;;;;;75.78;18.15;;;;;;;-0.68;100.00;102309.13;6197097;28;20058;-76
2021/03/18 04:54:48;;;;;;;74.43;17.27;;;;;;;-0.60;100.00;102313.56;6197496;28;20046;-69
2021/03/18 04:57:57;;;;;;;177.85;23.58;;;;;;;-0.64;100.00;102301.44;6196971;28;20109;-69
2021/03/18 05:00:59;;;;;;;49.88;20.33;;;;;;;-0.57;100.00;102312.78;6197103;28;20069;-70
2021/03/18 05:04:02;;;;;;;56.65;20.42;;;;;;;-0.36;100.00;102305.41;6197903;28;20400;-69
2021/03/18 05:07:03;;;;;;;128.80;23.63;;;;;;;-0.64;100.00;102303.16;6201852;28;20054;-68
2021/03/18 05:10:07;;;;;;;57.30;22.38;;;;;;;-0.52;100.00;102296.50;6190466;28;20518;-69
2021/03/18 05:13:10;;;;;;;66.28;21.67;;;;;;;-0.61;100.00;102306.69;6187808;28;20578;-71
2021/03/18 05:16:14;;;;;;;57.90;21.05;;;;;;;-0.41;100.00;102298.41;6189831;28;20039;-71
2021/03/18 05:19:16;;;;;;;79.65;22.30;;;;;;;-0.59;100.00;102304.13;6188260;28;20050;-71
2021/03/18 05:22:17;;;;;;;82.65;24.95;;;;;;;-0.60;100.00;102297.22;6189090;28;20137;-71
2021/03/18 05:25:21;;;;;;;80.05;24.85;;;;;;;-0.61;100.00;102298.06;6186393;28;20050;-71
2021/03/18 05:28:22;;;;;;;114.05;28.33;;;;;;;-0.55;100.00;102291.28;6182186;28;20042;-71
2021/03/18 05:31:24;;;;;;;74.65;26.40;;;;;;;-0.46;100.00;102294.88;6198363;28;20051;-71
2021/03/18 05:34:25;;;;;;;73.25;26.15;;;;;;;-0.37;100.00;102287.28;6189218;28;20412;-70
2021/03/18 05:37:26;;;;;;;184.15;31.42;;;;;;;-0.45;100.00;102276.84;6177020;28;20499;-71
2021/03/18 05:40:27;;;;;;;83.28;26.35;;;;;;;-0.45;100.00;102276.84;6176895;28;20074;-69
2021/03/18 05:43:28;;;;;;;71.80;27.88;;;;;;;-0.62;100.00;102281.72;6176425;28;20046;-69
2021/03/18 05:46:29;;;;;;;145.90;32.60;;;;;;;-0.58;100.00;102277.47;6176826;28;20051;-71
2021/03/18 05:49:32;;;;;;;76.80;26.52;;;;;;;-0.45;100.00;102284.59;6176700;28;20389;-69
2021/03/18 05:52:34;;;;;;;100.78;30.23;;;;;;;-0.51;100.00;102285.34;6200490;28;20057;-69
2021/03/18 05:55:36;;;;;;;86.05;28.92;;;;;;;-0.37;100.00;102282.13;6185157;28;20201;-68
2021/03/18 05:58:37;;;;;;;90.72;29.83;;;;;;;-0.45;100.00;102275.97;6181842;28;20507;-71
2021/03/18 06:01:40;;;;;;;80.03;29.20;;;;;;;-0.35;100.00;102272.69;6200388;28;20046;-71
2021/03/18 06:04:41;;;;;;;105.32;30.02;;;;;;;-0.39;100.00;102270.91;6200709;28;20077;-69
2021/03/18 06:07:45;;;;;;;107.05;30.58;;;;;;;-0.47;100.00;102270.75;6200457;28;20053;-71
2021/03/18 06:10:46;;;;;;;106.53;30.20;;;;;;;-0.52;100.00;102269.81;6199929;28;20496;-69
2021/03/18 06:13:47;;;;;;;104.20;29.27;;;;;;;-0.44;100.00;102275.13;6200378;28;20073;-71
2021/03/18 06:16:49;;;;;;;82.45;28.13;;;;;;;-0.34;100.00;102274.44;6199372;28;20082;-70
2021/03/18 06:19:51;;;;;;;61.30;27.90;;;;;;;-0.33;100.00;102274.44;6200062;28;20053;-71
2021/03/18 06:22:53;;;;;;;62.72;26.95;;;;;;;-0.34;100.00;102264.09;6199823;28;20050;-71
2021/03/18 06:25:55;;;;;;;80.10;28.80;;;;;;;-0.29;100.00;102265.03;6199824;28;20050;-71
2021/03/18 06:28:56;;;;;;;71.80;27.58;;;;;;;-0.18;100.00;102268.66;6199897;28;20506;-69
2021/03/18 06:32:01;;;;;;;67.38;27.80;;;;;;;-0.10;100.00;102267.03;6199448;28;20141;-71
2021/03/18 06:35:02;;;;;;;76.07;28.20;;;;;;;-0.17;100.00;102272.13;6198895;28;20050;-71
2021/03/18 06:38:06;;;;;;;64.45;25.02;;;;;;;-0.16;100.00;102268.69;6199218;28;20117;-69
2021/03/18 06:41:08;;;;;;;58.78;25.80;;;;;;;0.11;100.00;102273.38;6199361;28;20471;-69
2021/03/18 06:44:19;;;;;;;54.38;24.70;;;;;;;0.04;100.00;102277.59;6198433;28;20528;-69
2021/03/18 06:47:19;;;;;;;73.13;26.02;;;;;;;0.01;100.00;102261.19;6199539;28;20145;-69
2021/03/18 06:50:22;;;;;;;54.65;24.77;;;;;;;-0.05;100.00;102272.28;6199286;28;20050;-69
2021/03/18 06:53:24;;;;;;;76.18;25.23;;;;;;;0.16;100.00;102271.75;6199239;28;20491;-69
2021/03/18 06:56:29;;;;;;;52.97;23.17;;;;;;;-0.03;100.00;102271.47;6199250;28;20053;-69
2021/03/18 06:59:32;;;;;;;64.35;25.45;;;;;;;0.00;100.00;102273.25;6199356;28;20047;-69
2021/03/18 07:02:39;;;;;;;60.08;26.13;;;;;;;-0.04;100.00;102277.50;6198745;28;20104;-69
2021/03/18 07:05:42;;;;;;;56.95;25.13;;;;;;;0.04;100.00;102284.47;6199184;28;20093;-69
2021/03/18 07:08:42;;;;;;;62.00;25.05;;;;;;;0.14;100.00;102276.91;6198934;28;20058;-69
2021/03/18 07:11:47;;;;;;;54.22;23.95;;;;;;;0.28;100.00;102289.16;6199024;28;20057;-69
2021/03/18 07:14:50;;;;;;;49.63;22.30;;;;;;;0.24;100.00;102285.66;6198901;28;20046;-69
2021/03/18 07:17:58;;;;;;;55.60;24.05;;;;;;;0.39;100.00;102272.06;6198371;28;20057;-69
2021/03/18 07:21:02;;;;;;;66.53;23.98;;;;;;;0.33;100.00;102277.16;6198132;28;20082;-70
2021/03/18 07:24:04;;;;;;;60.58;25.65;;;;;;;0.22;100.00;102277.84;6198621;28;20054;-70
2021/03/18 07:27:11;;;;;;;58.35;24.55;;;;;;;0.25;100.00;102271.88;6195893;28;20092;-69
2021/03/18 07:30:24;;;;;;;53.72;23.45;;;;;;;0.41;100.00;102268.66;6194180;28;20046;-68
2021/03/18 07:33:25;;;;;;;50.13;22.42;;;;;;;0.31;100.00;102265.91;6195349;28;20418;-68
2021/03/18 07:36:26;;;;;;;53.83;24.42;;;;;;;0.26;100.00;102265.84;6196103;28;20050;-70
2021/03/18 07:39:27;;;;;;;50.28;22.15;;;;;;;0.33;100.00;102256.47;6196858;28;20051;-70
2021/03/18 07:42:29;;;;;;;50.28;21.20;;;;;;;0.25;100.00;102258.94;6197051;28;20415;-70
2021/03/18 07:45:30;;;;;;;44.47;19.80;;;;;;;0.23;100.00;102258.06;6189612;28;20054;-68
2021/03/18 07:48:33;;;;;;;37.35;18.33;;;;;;;0.34;100.00;102259.06;6195235;28;20054;-69
2021/03/18 07:51:38;;;;;;;36.58;17.50;;;;;;;0.22;100.00;102258.88;6186287;28;20047;-69
2021/03/18 07:54:39;;;;;;;38.25;17.55;;;;;;;0.22;100.00;102257.16;6185213;28;20051;-69
2021/03/18 07:57:42;;;;;;;41.28;19.50;;;;;;;0.31;100.00;102252.97;6196921;28;20049;-69
2021/03/18 08:00:43;;;;;;;38.47;18.88;;;;;;;0.44;100.00;102260.03;6202966;28;20507;-69
2021/03/18 08:03:51;;;;;;;39.22;18.35;;;;;;;0.44;100.00;102260.91;6188522;28;20051;-68
2021/03/18 08:06:54;;;;;;;43.13;18.20;;;;;;;0.40;100.00;102255.69;6173291;28;20082;-68
2021/03/18 08:09:55;;;;;;;45.35;19.85;;;;;;;0.56;100.00;102260.19;6173546;28;20050;-69
2021/03/18 08:12:57;;;;;;;46.47;20.67;;;;;;;0.54;100.00;102261.03;6194784;28;20133;-68
2021/03/18 08:15:58;;;;;;;44.35;20.63;;;;;;;0.54;100.00;102255.84;6197060;28;20419;-68
2021/03/18 08:19:01;;;;;;;50.83;21.38;;;;;;;0.65;100.00;102249.09;6197319;28;20058;-69
2021/03/18 08:22:02;;;;;;;51.45;21.63;;;;;;;0.65;100.00;102247.38;6196170;28;20042;-68
2021/03/18 08:25:20;;;;;;;55.45;22.90;;;;;;;0.83;100.00;102254.47;6197181;28;20073;-68
2021/03/18 08:28:36;;;;;;;52.65;22.60;;;;;;;0.72;100.00;102254.34;6196793;28;20057;-68
2021/03/18 08:31:55;;;;;;;54.42;22.23;;;;;;;0.74;100.00;102255.25;6196312;28;20145;-68
2021/03/18 08:34:59;;;;;;;51.40;21.58;;;;;;;0.82;100.00;102249.28;6195382;28;20085;-69
2021/03/18 08:38:13;;;;;;;57.50;24.63;;;;;;;0.81;100.00;102239.78;6172640;28;20113;-68
2021/03/18 08:41:25;;;;;;;61.92;23.17;;;;;;;0.94;100.00;102236.47;6176707;28;20078;-68
2021/03/18 08:44:29;;;;;;;58.58;22.85;;;;;;;0.84;100.00;102230.34;6178571;28;20093;-68
2021/03/18 08:47:37;;;;;;;62.35;22.83;;;;;;;0.84;100.00;102232.06;6201608;28;20537;-69
2021/03/18 08:50:52;;;;;;;67.90;25.05;;;;;;;0.80;100.00;102232.88;6201658;28;20053;-68
2021/03/18 08:53:53;;;;;;;54.53;23.55;;;;;;;1.19;100.00;102227.25;6201975;28;20109;-68
2021/03/18 08:56:54;;;;;;;50.38;20.95;;;;;;;0.92;100.00;102227.84;6201264;28;20452;-69
2021/03/18 08:59:58;;;;;;;51.97;22.83;;;;;;;1.14;100.00;102234.97;6201874;28;20046;-69
2021/03/18 09:02:59;;;;;;;58.30;22.55;;;;;;;0.71;100.00;102241.41;6200732;28;20054;-68
2021/03/18 09:06:00;;;;;;;59.92;23.13;;;;;;;0.76;100.00;102230.25;6201488;28;20050;-69
2021/03/18 09:09:01;;;;;;;65.28;23.77;;;;;;;0.90;100.00;102232.97;6201504;28;20116;-69
2021/03/18 09:12:03;;;;;;;66.03;24.73;;;;;;;1.01;100.00;102231.38;6200454;28;20137;-70
2021/03/18 09:15:30;;;;;;;57.65;24.55;;;;;;;1.42;100.00;102230.91;6201195;28;20419;-68
2021/03/18 09:18:33;;;;;;;53.22;22.17;;;;;;;1.12;100.00;102233.19;6191380;28;20054;-69
2021/03/18 09:21:39;;;;;;;61.20;24.02;;;;;;;0.89;100.00;102228.66;6200430;28;20107;-69
2021/03/18 09:24:43;;;;;;;56.47;23.50;;;;;;;0.96;100.00;102216.66;6201013;28;20506;-69
2021/03/18 09:27:46;;;;;;;59.42;24.77;;;;;;;1.26;100.00;102211.75;6200839;28;20104;-68
2021/03/18 09:30:50;;;;;;;59.75;22.60;;;;;;;1.09;100.00;102215.03;6200274;28;20051;-68
2021/03/18 09:33:54;;;;;;;47.00;20.65;;;;;;;1.14;100.00;102218.56;6200819;28;20054;-69
2021/03/18 09:36:55;;;;;;;47.90;20.15;;;;;;;1.17;100.00;102226.34;6200374;28;20507;-68
2021/03/18 09:39:55;;;;;;;43.17;19.00;;;;;;;1.35;100.00;102221.31;6200594;28;20136;-68
2021/03/18 09:42:56;;;;;;;44.53;18.80;;;;;;;1.34;100.00;102229.09;6199865;28;20057;-69
2021/03/18 09:46:00;;;;;;;43.35;18.92;;;;;;;1.46;100.00;102222.28;6187225;28;20055;-68
2021/03/18 09:49:02;;;;;;;42.42;19.42;;;;;;;1.52;100.00;102224.94;6193133;28;20057;-69
2021/03/18 09:52:05;;;;;;;45.88;18.42;;;;;;;1.61;100.00;102215.50;6198665;28;20057;-69
2021/03/18 09:55:11;;;;;;;45.78;18.08;;;;;;;1.62;100.00;102220.69;6199969;28;20519;-68
2021/03/18 09:58:14;;;;;;;38.92;18.20;;;;;;;1.32;100.00;102213.56;6199489;28;20057;-69
2021/03/18 10:01:19;;;;;;;42.47;18.48;;;;;;;1.37;100.00;102211.00;6198933;28;20051;-69
2021/03/18 10:04:21;;;;;;;43.20;17.85;;;;;;;1.29;100.00;102208.34;6199569;28;20054;-68
2021/03/18 10:07:26;;;;;;;46.28;18.42;;;;;;;1.68;100.00;102205.19;6199796;28;20060;-68
2021/03/18 10:10:29;;;;;;;41.42;18.13;;;;;;;1.50;100.00;102202.47;6200241;28;20050;-69
2021/03/18 10:13:30;;;;;;;33.92;16.77;;;;;;;1.78;100.00;102199.19;6197385;28;20399;-68
2021/03/18 10:16:32;;;;;;;34.30;17.02;;;;;;;1.89;99.82;102194.06;6198012;28;20058;-69
2021/03/18 10:19:35;;;;;;;44.97;17.80;;;;;;;1.63;100.00;102195.63;6185921;28;20046;-69
2021/03/18 10:22:40;;;;;;;37.88;16.50;;;;;;;1.86;100.00;102188.84;6187179;28;20046;-69
2021/03/18 10:25:41;;;;;;;38.13;16.63;;;;;;;1.78;100.00;102194.03;6175571;28;20423;-68
2021/03/18 10:28:42;;;;;;;38.97;18.10;;;;;;;1.88;98.97;102188.88;6175466;28;20061;-69
2021/03/18 10:31:43;;;;;;;41.53;17.65;;;;;;;1.85;99.77;102184.53;6174833;28;20043;-68
2021/03/18 10:34:53;;;;;;;39.45;17.50;;;;;;;1.83;100.00;102186.28;6197120;28;20104;-68
2021/03/18 10:37:54;;;;;;;37.28;18.35;;;;;;;1.91;100.00;102182.00;6199150;28;20158;-69
2021/03/18 10:40:56;;;;;;;40.83;17.52;;;;;;;2.06;99.75;102181.22;6183014;28;20051;-69
2021/03/18 10:43:57;;;;;;;36.95;16.60;;;;;;;2.32;95.83;102183.03;6174900;28;20539;-69
2021/03/18 10:47:14;;;;;;;41.42;17.95;;;;;;;2.17;96.61;102176.94;6194195;28;20050;-69
2021/03/18 10:50:20;;;;;;;41.30;16.95;;;;;;;2.28;95.00;102177.84;6198764;28;20105;-69
2021/03/18 10:53:22;;;;;;;41.47;16.95;;;;;;;2.50;94.09;102172.75;6198238;28;20054;-69
2021/03/18 10:56:25;;;;;;;42.45;17.85;;;;;;;2.21;94.29;102165.72;6183609;28;20061;-68
2021/03/18 10:59:25;;;;;;;41.90;16.88;;;;;;;2.24;95.72;102168.31;6174724;28;20526;-68
2021/03/18 11:02:29;;;;;;;40.92;17.85;;;;;;;2.27;95.61;102162.25;6173491;28;20043;-68
2021/03/18 11:05:32;;;;;;;37.80;15.73;;;;;;;2.37;96.02;102169.25;6192339;28;20419;-71
2021/03/18 11:08:33;;;;;;;38.75;17.15;;;;;;;2.29;96.23;102155.38;6198535;28;20073;-71
2021/03/18 11:11:34;;;;;;;37.22;15.15;;;;;;;2.54;94.59;102159.78;6197705;28;20054;-71
2021/03/18 11:14:35;;;;;;;46.05;18.23;;;;;;;2.63;96.06;102151.13;6198485;28;20495;-71
2021/03/18 11:17:37;;;;;;;39.65;16.75;;;;;;;2.80;94.26;102143.38;6251984;23;20041;-77
2021/03/18 11:20:40;;;;;;;40.60;17.45;;;;;;;3.30;92.73;102135.59;6219317;28;20469;-77
2021/03/18 11:23:42;;;;;;;35.17;15.75;;;;;;;3.24;91.21;102129.53;6203063;28;20054;-78
2021/03/18 11:26:54;;;;;;;35.25;15.00;;;;;;;3.29;91.15;102120.88;6203809;28;20521;-77
2021/03/18 11:29:55;;;;;;;39.17;16.33;;;;;;;3.34;88.42;102112.22;6196958;28;20104;-78
2021/03/18 11:33:29;;;;;;;36.53;15.80;;;;;;;3.26;89.00;102118.28;6196554;28;20058;-77
2021/03/18 11:36:30;;;;;;;43.38;15.93;;;;;;;3.20;87.91;102107.91;6183599;28;20058;-79
2021/03/18 11:39:31;;;;;;;39.58;16.83;;;;;;;3.37;88.83;102110.47;6198087;28;20054;-79
2021/03/18 11:42:31;;;;;;;40.10;17.38;;;;;;;3.40;87.00;102099.19;6198134;28;20499;-78
2021/03/18 11:45:33;;;;;;;38.45;17.40;;;;;;;3.60;88.00;102100.03;6187689;28;20050;-79
2021/03/18 11:48:35;;;;;;;38.22;16.35;;;;;;;3.68;87.42;102093.09;6173698;28;20538;-78
2021/03/18 11:51:37;;;;;;;37.25;17.27;;;;;;;3.59;87.79;102095.72;6172437;28;20051;-79
2021/03/18 11:54:38;;;;;;;37.90;15.80;;;;;;;3.61;88.80;102082.69;6174804;28;20051;-79
2021/03/18 11:57:39;;;;;;;34.65;16.10;;;;;;;3.86;89.25;102078.25;6198132;28;20057;-78
2021/03/18 12:00:40;;;;;;;34.80;15.57;;;;;;;4.06;87.54;102077.31;6198280;28;20046;-79
2021/03/18 12:03:42;;;;;;;38.00;14.48;;;;;;;4.23;84.37;102074.63;6197711;28;20057;-78
2021/03/18 12:06:43;;;;;;;32.25;15.00;;;;;;;3.89;87.80;102071.31;6197964;28;20061;-80
2021/03/18 12:09:44;;;;;;;31.95;15.35;;;;;;;3.92;88.13;102073.06;6197621;28;20192;-79
2021/03/18 12:12:45;;;;;;;29.48;13.90;;;;;;;4.18;88.53;102070.31;6197747;28;20052;-79
2021/03/18 12:15:46;;;;;;;35.67;15.75;;;;;;;4.08;88.75;102061.69;6197066;28;20047;-79
2021/03/18 12:18:48;;;;;;;37.30;15.82;;;;;;;4.19;88.59;102059.91;6196428;28;20050;-79
2021/03/18 12:21:49;;;;;;;56.75;17.00;;;;;;;4.35;88.93;102049.41;6196106;28;20050;-79
2021/03/18 12:24:50;;;;;;;31.60;14.90;;;;;;;4.27;88.49;102049.44;6189348;28;20081;-78
2021/03/18 12:27:51;;;;;;;41.67;14.73;;;;;;;4.27;85.49;102039.91;6192322;28;20058;-79
2021/03/18 12:30:53;;;;;;;29.05;14.98;;;;;;;4.23;86.39;102040.81;6188325;28;20707;-80
2021/03/18 12:33:55;;;;;;;33.95;14.35;;;;;;;4.12;84.40;102034.78;6181894;28;20055;-79
2021/03/18 12:36:56;;;;;;;35.78;15.07;;;;;;;4.46;87.35;102024.16;6174307;28;20098;-78
2021/03/18 12:39:57;;;;;;;28.83;14.45;;;;;;;4.73;84.59;102013.53;6173109;28;20047;-78
2021/03/18 12:42:58;;;;;;;32.28;15.18;;;;;;;4.70;86.00;102003.13;6182298;28;20062;-78
2021/03/18 12:45:59;;;;;;;33.08;15.52;;;;;;;4.87;86.16;101994.31;6176631;28;20051;-78
2021/03/18 12:49:01;;;;;;;29.40;14.90;;;;;;;4.94;85.37;101989.00;6173012;28;20167;-78
2021/03/18 12:52:02;;;;;;;26.88;13.38;;;;;;;5.40;84.90;101990.25;6175975;28;20043;-78
2021/03/18 12:55:05;;;;;;;30.95;14.65;;;;;;;5.48;83.41;101989.28;6197120;28;20075;-77
2021/03/18 12:58:06;;;;;;;31.27;15.25;;;;;;;5.69;84.43;101984.69;6197168;28;20062;-78
2021/03/18 13:01:08;;;;;;;32.60;15.00;;;;;;;5.70;83.57;101978.59;6196292;28;20082;-79
2021/03/18 13:04:12;;;;;;;23.75;13.77;;;;;;;5.63;83.13;101976.94;6197004;28;20487;-79
2021/03/18 13:07:13;;;;;;;29.55;14.73;;;;;;;5.67;80.54;101961.22;6197210;28;20173;-79
2021/03/18 13:10:14;;;;;;;23.83;13.38;;;;;;;5.47;78.54;101968.44;6196804;28;20047;-76
2021/03/18 13:13:15;;;;;;;34.92;16.33;;;;;;;5.10;83.75;101961.06;6196316;28;20061;-78
2021/03/18 13:16:16;;;;;;;30.25;13.73;;;;;;;5.04;82.78;101962.00;6196885;28;20551;-78
2021/03/18 13:19:19;;;;;;;30.02;13.85;;;;;;;5.08;81.36;101955.00;6196740;28;20503;-78
2021/03/18 13:22:20;;;;;;;28.02;14.82;;;;;;;4.79;83.77;101953.56;6196056;28;20520;-78
2021/03/18 13:25:22;;;;;;;31.33;14.52;;;;;;;4.58;85.24;101958.97;6198031;28;20140;-78
2021/03/18 13:28:23;;;;;;;35.20;14.93;;;;;;;4.65;83.38;101960.66;6200875;28;20076;-77
2021/03/18 13:31:24;;;;;;;30.45;14.45;;;;;;;4.43;84.98;101959.97;6200600;28;20089;-78
2021/03/18 13:34:26;;;;;;;38.20;15.10;;;;;;;4.64;83.75;101951.13;6199831;28;20133;-78
2021/03/18 13:37:27;;;;;;;31.90;14.63;;;;;;;4.29;86.02;101949.69;6178266;28;20512;-79
2021/03/18 13:40:30;;;;;;;29.88;14.90;;;;;;;4.22;88.43;101950.59;6176527;28;20211;-79
2021/03/18 13:43:32;;;;;;;32.97;15.77;;;;;;;4.26;88.88;101949.69;6175885;28;20086;-79
2021/03/18 13:46:34;;;;;;;29.35;15.48;;;;;;;4.22;89.74;101945.38;6194792;28;20053;-78
2021/03/18 13:49:36;;;;;;;35.28;15.70;;;;;;;4.20;89.88;101941.94;6199721;28;20050;-77